createdAt,value
2022-10-18T00:02:03.916Z,13.97
2022-10-18T00:04:30.430Z,14.02
2022-10-18T00:06:57.066Z,13.97
2022-10-18T00:09:23.503Z,13.93
2022-10-18T00:11:49.894Z,13.94
2022-10-18T00:14:16.289Z,13.94
2022-10-18T00:16:42.683Z,13.92
2022-10-18T00:19:09.250Z,13.94
2022-10-18T00:21:35.706Z,13.97
2022-10-18T00:24:02.250Z,13.87
2022-10-18T00:26:30.509Z,13.94
2022-10-18T00:28:59.655Z,13.91
2022-10-18T00:31:32.082Z,13.97
2022-10-18T00:34:01.259Z,14.02
2022-10-18T00:36:29.783Z,13.99
2022-10-18T00:38:56.394Z,13.83
2022-10-18T00:41:27.076Z,13.76
2022-10-18T00:44:01.058Z,13.80
2022-10-18T00:46:49.295Z,13.74
2022-10-18T00:49:19.607Z,13.70
2022-10-18T00:51:49.990Z,13.86
2022-10-18T00:54:17.570Z,13.86
2022-10-18T00:56:45.371Z,13.82
2022-10-18T00:59:15.029Z,13.77
2022-10-18T01:01:41.561Z,13.82
2022-10-18T01:04:08.327Z,13.81
2022-10-18T01:09:38.045Z,13.77
2022-10-18T01:12:23.078Z,13.82
2022-10-18T01:14:56.115Z,13.76
2022-10-18T01:17:50.553Z,13.77
2022-10-18T01:20:33.867Z,13.73
2022-10-18T01:23:15.487Z,13.65
2022-10-18T01:26:12.241Z,13.76
2022-10-18T01:28:56.834Z,13.80
2022-10-18T01:31:43.553Z,13.74
2022-10-18T01:34:14.838Z,13.65
2022-10-18T01:36:46.002Z,13.73
2022-10-18T01:39:16.870Z,13.71
2022-10-18T01:41:45.365Z,13.59
2022-10-18T01:44:16.627Z,13.54
2022-10-18T01:46:45.121Z,13.60
2022-10-18T01:49:11.517Z,13.51
2022-10-18T01:51:38.123Z,13.64
2022-10-18T01:54:05.079Z,13.59
2022-10-18T01:56:31.448Z,13.61
2022-10-18T01:59:17.165Z,13.62
2022-10-18T02:02:05.846Z,13.69
2022-10-18T02:05:06.749Z,13.62
2022-10-18T02:07:39.348Z,13.48
2022-10-18T02:10:25.029Z,13.59
2022-10-18T02:12:54.005Z,13.49
2022-10-18T02:15:35.872Z,13.52
2022-10-18T02:18:08.489Z,13.63
2022-10-18T02:20:36.546Z,13.62
2022-10-18T02:23:06.325Z,13.64
2022-10-18T02:25:35.280Z,13.60
2022-10-18T02:28:03.384Z,13.54
2022-10-18T02:30:37.187Z,13.58
2022-10-18T02:33:17.829Z,13.50
2022-10-18T02:35:52.959Z,13.42
2022-10-18T02:38:20.976Z,13.47
2022-10-18T02:40:47.372Z,13.42
2022-10-18T02:43:14.180Z,13.50
2022-10-18T02:45:40.783Z,13.47
2022-10-18T02:48:07.593Z,13.48
2022-10-18T02:50:34.025Z,13.60
2022-10-18T02:53:00.385Z,13.54
2022-10-18T02:55:26.778Z,13.48
2022-10-18T02:57:53.268Z,13.34
2022-10-18T03:00:19.765Z,13.38
2022-10-18T03:02:46.174Z,13.39
2022-10-18T03:05:12.646Z,13.17
2022-10-18T03:07:39.029Z,13.22
2022-10-18T03:10:05.951Z,13.32
2022-10-18T03:12:32.388Z,13.32
2022-10-18T03:14:58.764Z,13.27
2022-10-18T03:17:25.193Z,13.19
2022-10-18T03:19:51.576Z,13.19
2022-10-18T03:22:17.964Z,13.26
2022-10-18T03:24:45.455Z,13.24
2022-10-18T03:27:11.845Z,13.28
2022-10-18T03:29:38.221Z,13.28
2022-10-18T03:32:04.762Z,13.20
2022-10-18T03:34:31.151Z,13.14
2022-10-18T03:37:00.902Z,13.10
2022-10-18T03:39:29.884Z,13.03
2022-10-18T03:41:56.284Z,13.22
2022-10-18T03:44:22.798Z,13.22
2022-10-18T03:46:49.295Z,13.01
2022-10-18T03:49:15.793Z,13.15
2022-10-18T03:51:42.159Z,13.30
2022-10-18T03:54:08.610Z,13.32
2022-10-18T03:56:35.022Z,13.35
2022-10-18T03:59:02.676Z,13.24
2022-10-18T04:01:29.160Z,13.11
2022-10-18T04:03:55.564Z,12.95
2022-10-18T04:06:22.051Z,13.02
2022-10-18T04:08:48.490Z,13.04
2022-10-18T04:11:15.049Z,13.00
2022-10-18T04:13:41.582Z,13.06
2022-10-18T04:16:07.972Z,13.18
2022-10-18T04:18:34.350Z,13.16
2022-10-18T04:21:00.735Z,13.15
2022-10-18T04:23:27.119Z,13.21
2022-10-18T04:25:53.600Z,13.12
2022-10-18T04:28:19.989Z,13.04
2022-10-18T04:30:52.885Z,13.03
2022-10-18T04:33:20.100Z,13.08
2022-10-18T04:35:47.077Z,13.06
2022-10-18T04:38:16.475Z,12.93
2022-10-18T04:40:42.864Z,12.94
2022-10-18T04:43:09.401Z,13.03
2022-10-18T04:45:36.142Z,13.02
2022-10-18T04:48:02.773Z,13.09
2022-10-18T04:50:29.150Z,13.02
2022-10-18T04:52:55.528Z,12.93
2022-10-18T04:55:22.079Z,13.07
2022-10-18T04:57:48.766Z,13.05
2022-10-18T05:00:15.493Z,13.02
2022-10-18T05:02:42.078Z,12.97
2022-10-18T05:05:11.638Z,12.99
2022-10-18T05:07:40.416Z,13.01
2022-10-18T05:10:07.499Z,13.00
2022-10-18T05:12:34.362Z,13.01
2022-10-18T05:15:00.968Z,13.06
2022-10-18T05:17:27.358Z,13.02
2022-10-18T05:19:53.779Z,12.83
2022-10-18T05:22:20.247Z,12.91
2022-10-18T05:24:46.698Z,12.98
2022-10-18T05:27:13.064Z,12.99
2022-10-18T05:29:39.597Z,12.86
2022-10-18T05:32:06.029Z,12.93
2022-10-18T05:34:32.992Z,12.95
2022-10-18T05:36:59.737Z,12.86
2022-10-18T05:39:26.259Z,12.94
2022-10-18T05:41:52.631Z,12.92
2022-10-18T05:44:19.082Z,12.83
2022-10-18T05:46:45.441Z,12.87
2022-10-18T05:49:12.462Z,12.86
2022-10-18T05:51:38.917Z,12.68
2022-10-18T05:54:05.311Z,12.73
2022-10-18T05:56:31.942Z,12.92
2022-10-18T05:58:58.440Z,12.92
2022-10-18T06:01:24.803Z,12.94
2022-10-18T06:03:51.225Z,13.02
2022-10-18T06:06:17.627Z,12.96
2022-10-18T06:08:44.501Z,13.01
2022-10-18T06:11:16.357Z,13.05
2022-10-18T06:13:47.939Z,12.99
2022-10-18T06:16:16.542Z,12.97
2022-10-18T06:18:43.222Z,12.91
2022-10-18T06:21:10.009Z,12.87
2022-10-18T06:23:36.701Z,12.89
2022-10-18T06:26:08.176Z,12.92
2022-10-18T06:28:36.256Z,12.93
2022-10-18T06:31:04.532Z,12.94
2022-10-18T06:33:32.108Z,13.01
2022-10-18T06:36:00.620Z,12.99
2022-10-18T06:38:28.492Z,12.93
2022-10-18T06:40:55.686Z,12.91
2022-10-18T06:43:22.514Z,13.03
2022-10-18T06:45:49.592Z,13.09
2022-10-18T06:48:16.669Z,13.05
2022-10-18T06:50:43.216Z,12.96
2022-10-18T06:53:09.700Z,12.97
2022-10-18T06:55:36.165Z,13.18
2022-10-18T06:58:02.749Z,13.20
2022-10-18T07:00:29.189Z,13.23
2022-10-18T07:02:57.154Z,13.11
2022-10-18T07:05:23.761Z,13.32
2022-10-18T07:07:54.194Z,13.32
2022-10-18T07:10:23.408Z,13.35
2022-10-18T07:12:50.369Z,13.49
2022-10-18T07:15:18.010Z,13.28
2022-10-18T07:17:47.809Z,13.28
2022-10-18T07:20:14.358Z,13.43
2022-10-18T07:22:40.886Z,13.54
2022-10-18T07:25:07.697Z,13.44
2022-10-18T07:27:38.380Z,13.57
2022-10-18T07:30:06.525Z,13.68
2022-10-18T07:32:33.301Z,13.72
2022-10-18T07:34:59.843Z,13.74
2022-10-18T07:37:27.940Z,13.75
2022-10-18T07:39:56.496Z,13.73
2022-10-18T07:42:23.004Z,13.90
2022-10-18T07:44:49.408Z,13.93
2022-10-18T07:47:15.825Z,13.94
2022-10-18T07:49:42.188Z,13.98
2022-10-18T07:52:08.613Z,14.08
2022-10-18T07:54:35.023Z,14.09
2022-10-18T07:57:01.385Z,13.99
2022-10-18T07:59:27.826Z,14.06
2022-10-18T08:01:54.299Z,14.09
2022-10-18T08:04:20.740Z,14.11
2022-10-18T08:06:47.672Z,14.17
2022-10-18T08:09:14.126Z,14.28
2022-10-18T08:11:40.512Z,14.35
2022-10-18T08:14:06.933Z,14.33
2022-10-18T08:16:33.474Z,14.42
2022-10-18T08:19:00.249Z,14.48
2022-10-18T08:21:26.996Z,14.45
2022-10-18T08:23:53.884Z,14.53
2022-10-18T08:26:21.901Z,14.59
2022-10-18T08:28:58.262Z,14.63
2022-10-18T08:31:35.733Z,14.60
2022-10-18T08:34:02.122Z,14.63
2022-10-18T08:36:28.556Z,14.68
2022-10-18T08:38:54.983Z,14.72
2022-10-18T08:41:27.366Z,14.78
2022-10-18T08:44:07.184Z,14.82
2022-10-18T08:46:36.321Z,14.89
2022-10-18T08:49:05.440Z,14.98
2022-10-18T08:51:58.757Z,15.02
2022-10-18T08:54:43.514Z,14.99
2022-10-18T08:57:14.553Z,15.10
2022-10-18T08:59:42.074Z,15.10
2022-10-18T09:02:43.923Z,15.11
2022-10-18T09:05:35.787Z,15.17
2022-10-18T09:08:26.998Z,15.23
2022-10-18T09:11:05.499Z,15.29
2022-10-18T09:13:59.172Z,15.32
2022-10-18T09:16:54.264Z,15.39
2022-10-18T09:19:35.586Z,15.41
2022-10-18T09:22:12.984Z,15.49
2022-10-18T09:24:44.539Z,15.52
2022-10-18T09:27:16.854Z,15.60
2022-10-18T09:30:13.366Z,15.64
2022-10-18T09:32:55.253Z,15.67
2022-10-18T09:35:25.628Z,15.69
2022-10-18T09:38:02.165Z,15.72
2022-10-18T09:40:32.984Z,15.83
2022-10-18T09:43:03.089Z,15.83
2022-10-18T09:45:39.529Z,15.88
2022-10-18T09:48:06.081Z,15.92
2022-10-18T09:50:39.666Z,16.00
2022-10-18T09:53:32.817Z,16.07
2022-10-18T09:56:04.765Z,16.08
2022-10-18T09:58:41.610Z,16.12
2022-10-18T10:01:10.176Z,16.25
2022-10-18T10:03:36.948Z,16.21
2022-10-18T10:06:16.617Z,16.23
2022-10-18T10:08:47.574Z,16.33
2022-10-18T10:11:32.210Z,16.48
2022-10-18T10:14:13.519Z,16.53
2022-10-18T10:16:46.886Z,16.59
2022-10-18T10:19:30.436Z,16.59
2022-10-18T10:22:25.981Z,16.67
2022-10-18T10:24:54.982Z,16.71
2022-10-18T10:27:32.708Z,16.69
2022-10-18T10:30:05.747Z,16.70
2022-10-18T10:32:46.742Z,16.74
2022-10-18T10:35:34.059Z,16.77
2022-10-18T10:38:23.775Z,16.75
2022-10-18T10:40:50.375Z,16.76
2022-10-18T10:43:43.032Z,16.78
2022-10-18T10:46:12.035Z,16.84
2022-10-18T10:49:00.350Z,16.84
2022-10-18T10:51:40.124Z,16.90
2022-10-18T10:54:15.805Z,17.04
2022-10-18T10:56:54.469Z,17.17
2022-10-18T10:59:23.984Z,17.21
2022-10-18T11:02:12.396Z,17.22
2022-10-18T11:04:38.762Z,17.23
2022-10-18T11:07:40.100Z,17.29
2022-10-18T11:10:09.562Z,17.30
2022-10-18T11:12:45.396Z,17.36
2022-10-18T11:15:14.390Z,17.36
2022-10-18T11:18:18.489Z,17.39
2022-10-18T11:20:50.987Z,17.33
2022-10-18T11:23:19.111Z,17.36
2022-10-18T11:26:10.640Z,17.41
2022-10-18T11:28:36.993Z,17.42
2022-10-18T11:31:09.480Z,17.50
2022-10-18T11:34:08.264Z,17.50
2022-10-18T11:36:46.200Z,17.56
2022-10-18T11:39:56.266Z,17.56
2022-10-18T11:42:44.084Z,17.63
2022-10-18T11:45:10.389Z,17.64
2022-10-18T11:47:52.215Z,17.64
2022-10-18T11:50:48.623Z,17.77
2022-10-18T11:53:27.292Z,17.73
2022-10-18T11:56:10.760Z,17.68
2022-10-18T11:59:05.159Z,17.64
2022-10-18T12:01:40.294Z,17.72
2022-10-18T12:04:14.300Z,17.91
2022-10-18T12:06:43.297Z,17.81
2022-10-18T12:09:36.379Z,17.79
2022-10-18T12:12:09.579Z,17.80
2022-10-18T12:14:38.788Z,17.75
2022-10-18T12:17:40.743Z,17.77
2022-10-18T12:20:15.212Z,17.82
2022-10-18T12:23:01.084Z,17.85
2022-10-18T12:25:30.286Z,17.82
2022-10-18T12:28:05.710Z,17.85
2022-10-18T12:30:51.978Z,17.87
2022-10-18T12:33:28.846Z,17.81
2022-10-18T12:36:04.428Z,17.93
2022-10-18T12:38:33.219Z,17.92
2022-10-18T12:41:00.686Z,17.95
2022-10-18T12:43:34.070Z,18.01
2022-10-18T12:46:02.343Z,17.99
2022-10-18T12:48:33.495Z,18.03
2022-10-18T12:51:15.176Z,18.09
2022-10-18T12:53:45.842Z,18.17
2022-10-18T12:56:36.848Z,18.24
2022-10-18T12:59:15.329Z,18.25
2022-10-18T13:01:50.535Z,18.19
2022-10-18T13:04:29.491Z,18.19
2022-10-18T13:06:59.478Z,18.17
2022-10-18T13:09:38.161Z,18.21
2022-10-18T13:12:10.352Z,18.19
2022-10-18T13:15:21.102Z,18.16
2022-10-18T13:18:21.533Z,18.28
2022-10-18T13:21:10.487Z,18.23
2022-10-18T13:23:47.206Z,18.16
2022-10-18T13:26:40.165Z,18.22
2022-10-18T13:29:06.624Z,18.20
2022-10-18T13:31:48.604Z,18.18
2022-10-18T13:34:24.226Z,18.19
2022-10-18T13:36:58.972Z,18.24
2022-10-18T13:39:26.027Z,18.22
2022-10-18T13:41:56.662Z,18.26
2022-10-18T13:44:28.714Z,18.21
2022-10-18T13:46:55.031Z,18.25
2022-10-18T13:49:39.732Z,18.27
2022-10-18T13:52:54.438Z,18.27
2022-10-18T13:55:35.872Z,18.23
2022-10-18T13:58:17.578Z,18.19
2022-10-18T14:01:02.891Z,18.23
2022-10-18T14:04:04.155Z,18.23
2022-10-18T14:06:41.242Z,18.28
2022-10-18T14:09:26.055Z,18.26
2022-10-18T14:12:21.597Z,18.24
2022-10-18T14:14:57.817Z,18.22
2022-10-18T14:17:51.188Z,18.23
2022-10-18T14:21:12.813Z,18.20
2022-10-18T14:23:44.592Z,18.16
2022-10-18T14:26:19.827Z,18.13
2022-10-18T14:29:15.785Z,18.15
2022-10-18T14:31:43.406Z,18.13
2022-10-18T14:34:15.259Z,18.14
2022-10-18T14:36:45.690Z,18.10
2022-10-18T14:39:28.077Z,18.05
2022-10-18T14:41:57.973Z,18.09
2022-10-18T14:44:28.761Z,18.02
2022-10-18T14:47:03.630Z,18.04
2022-10-18T14:49:31.015Z,18.03
2022-10-18T14:52:01.105Z,18.03
2022-10-18T14:54:33.440Z,18.02
2022-10-18T14:57:04.627Z,17.99
2022-10-18T14:59:37.561Z,17.93
2022-10-18T15:02:15.216Z,17.96
2022-10-18T15:04:44.929Z,17.98
2022-10-18T15:07:16.899Z,17.94
2022-10-18T15:09:44.534Z,17.92
2022-10-18T15:12:14.358Z,17.91
2022-10-18T15:14:42.384Z,17.84
2022-10-18T15:17:16.915Z,17.80
2022-10-18T15:19:58.488Z,17.84
2022-10-18T15:22:32.139Z,17.86
2022-10-18T15:25:34.449Z,17.82
2022-10-18T15:28:01.793Z,17.77
2022-10-18T15:30:42.546Z,17.79
2022-10-18T15:33:22.221Z,17.72
2022-10-18T15:35:48.934Z,17.71
2022-10-18T15:38:24.161Z,17.64
2022-10-18T15:40:50.654Z,17.57
2022-10-18T15:43:23.224Z,17.49
2022-10-18T15:45:52.653Z,17.44
2022-10-18T15:48:26.190Z,17.44
2022-10-18T15:50:55.727Z,17.43
2022-10-18T15:53:25.510Z,17.35
2022-10-18T15:56:02.575Z,17.34
2022-10-18T15:58:50.639Z,17.27
2022-10-18T16:01:21.542Z,17.23
2022-10-18T16:03:50.105Z,17.21
2022-10-18T16:06:18.299Z,17.14
2022-10-18T16:08:51.183Z,17.06
2022-10-18T16:11:25.389Z,16.98
2022-10-18T16:13:55.169Z,16.94
2022-10-18T16:16:26.570Z,16.90
2022-10-18T16:18:53.557Z,16.83
2022-10-18T16:21:21.208Z,16.76
2022-10-18T16:23:48.657Z,16.72
2022-10-18T16:26:16.840Z,16.68
2022-10-18T16:28:44.203Z,16.64
2022-10-18T16:31:16.670Z,16.59
2022-10-18T16:33:43.935Z,16.56
2022-10-18T16:36:19.344Z,16.54
2022-10-18T16:38:46.781Z,16.51
2022-10-18T16:41:15.740Z,16.48
2022-10-18T16:43:44.047Z,16.45
2022-10-18T16:46:15.928Z,16.41
2022-10-18T16:48:42.839Z,16.35
2022-10-18T16:51:10.441Z,16.27
2022-10-18T16:53:36.834Z,16.26
2022-10-18T16:56:05.445Z,16.28
2022-10-18T16:58:33.387Z,16.31
2022-10-18T17:01:01.912Z,16.28
2022-10-18T17:03:30.563Z,16.25
2022-10-18T17:05:57.008Z,16.19
2022-10-18T17:08:26.815Z,16.14
2022-10-18T17:10:56.797Z,16.11
2022-10-18T17:13:25.094Z,16.07
2022-10-18T17:15:52.668Z,16.05
2022-10-18T17:18:23.288Z,15.98
2022-10-18T17:20:49.980Z,15.99
2022-10-18T17:23:16.512Z,16.02
2022-10-18T17:25:57.804Z,15.98
2022-10-18T17:28:32.974Z,16.00
2022-10-18T17:30:59.413Z,15.93
2022-10-18T17:33:25.793Z,15.94
2022-10-18T17:35:52.236Z,15.77
2022-10-18T17:38:18.657Z,15.80
2022-10-18T17:40:45.028Z,15.80
2022-10-18T17:43:13.523Z,15.73
2022-10-18T17:45:51.095Z,15.77
2022-10-18T17:48:17.813Z,15.77
2022-10-18T17:50:44.289Z,15.77
2022-10-18T17:53:11.971Z,15.71
2022-10-18T17:55:39.121Z,15.74
2022-10-18T17:58:05.715Z,15.72
2022-10-18T18:00:32.154Z,15.57
2022-10-18T18:02:59.950Z,15.63
2022-10-18T18:05:30.760Z,15.63
2022-10-18T18:08:02.746Z,15.62
2022-10-18T18:10:32.806Z,15.57
2022-10-18T18:12:59.226Z,15.56
2022-10-18T18:15:25.754Z,15.60
2022-10-18T18:17:57.021Z,15.44
2022-10-18T18:20:24.615Z,15.49
2022-10-18T18:22:51.605Z,15.50
2022-10-18T18:25:18.210Z,15.47
2022-10-18T18:27:44.657Z,15.37
2022-10-18T18:30:11.600Z,15.38
2022-10-18T18:32:38.110Z,15.37
2022-10-18T18:35:04.907Z,15.40
2022-10-18T18:37:31.293Z,15.20
2022-10-18T18:39:57.795Z,15.32
2022-10-18T18:42:24.262Z,15.24
2022-10-18T18:44:50.646Z,15.27
2022-10-18T18:47:19.420Z,15.30
2022-10-18T18:49:45.800Z,15.31
2022-10-18T18:52:12.166Z,15.32
2022-10-18T18:54:38.535Z,15.31
2022-10-18T18:57:06.343Z,15.31
2022-10-18T18:59:32.767Z,15.31
2022-10-18T19:01:59.304Z,15.27
2022-10-18T19:04:25.954Z,15.21
2022-10-18T19:06:52.435Z,15.25
2022-10-18T19:09:20.634Z,15.23
2022-10-18T19:11:49.176Z,15.08
2022-10-18T19:14:16.681Z,15.11
2022-10-18T19:16:51.828Z,15.07
2022-10-18T19:19:20.338Z,15.04
2022-10-18T19:21:52.732Z,15.05
2022-10-18T19:24:21.115Z,15.03
2022-10-18T19:26:50.523Z,15.02
2022-10-18T19:29:25.669Z,15.04
2022-10-18T19:31:53.798Z,15.03
2022-10-18T19:34:22.065Z,15.00
2022-10-18T19:36:50.255Z,15.00
2022-10-18T19:39:19.593Z,14.96
2022-10-18T19:41:51.974Z,15.03
2022-10-18T19:44:19.853Z,14.90
2022-10-18T19:46:47.088Z,14.95
2022-10-18T19:49:13.759Z,14.99
2022-10-18T19:51:40.508Z,15.04
2022-10-18T19:54:07.477Z,14.99
2022-10-18T19:56:33.968Z,14.93
2022-10-18T19:59:00.403Z,14.74
2022-10-18T20:01:28.312Z,14.78
2022-10-18T20:03:55.292Z,14.84
2022-10-18T20:06:22.093Z,14.84
2022-10-18T20:08:48.704Z,14.84
2022-10-18T20:11:18.870Z,14.86
2022-10-18T20:13:45.280Z,14.75
2022-10-18T20:16:13.682Z,14.75
2022-10-18T20:18:42.980Z,14.82
2022-10-18T20:21:14.688Z,14.87
2022-10-18T20:23:43.180Z,14.79
2022-10-18T20:26:20.481Z,14.78
2022-10-18T20:28:49.122Z,14.81
2022-10-18T20:31:18.540Z,14.78
2022-10-18T20:33:46.470Z,14.78
2022-10-18T20:36:18.832Z,14.66
2022-10-18T20:38:47.103Z,14.69
2022-10-18T20:41:19.604Z,14.58
2022-10-18T20:43:51.891Z,14.62
2022-10-18T20:46:18.542Z,14.62
2022-10-18T20:48:44.927Z,14.67
2022-10-18T20:51:14.703Z,14.57
2022-10-18T20:53:41.164Z,14.68
2022-10-18T20:56:10.519Z,14.60
2022-10-18T20:58:38.892Z,14.63
2022-10-18T21:01:10.026Z,14.53
2022-10-18T21:03:38.208Z,14.57
2022-10-18T21:06:13.255Z,14.45
2022-10-18T21:08:40.436Z,14.42
2022-10-18T21:11:07.229Z,14.48
2022-10-18T21:13:34.130Z,14.39
2022-10-18T21:16:01.358Z,14.51
2022-10-18T21:18:29.705Z,14.52
2022-10-18T21:21:06.033Z,14.48
2022-10-18T21:23:32.494Z,14.41
2022-10-18T21:25:58.876Z,14.27
2022-10-18T21:28:25.303Z,14.36
2022-10-18T21:30:51.731Z,14.43
2022-10-18T21:33:18.149Z,14.33
2022-10-18T21:35:44.571Z,14.47
2022-10-18T21:38:11.003Z,14.42
2022-10-18T21:40:39.690Z,14.45
2022-10-18T21:43:06.191Z,14.38
2022-10-18T21:45:32.571Z,14.32
2022-10-18T21:47:58.948Z,14.32
2022-10-18T21:50:25.428Z,14.30
2022-10-18T21:52:51.815Z,14.33
2022-10-18T21:55:18.199Z,14.31
2022-10-18T21:57:44.639Z,14.32
2022-10-18T22:00:11.963Z,14.34
2022-10-18T22:02:38.354Z,14.35
2022-10-18T22:05:08.272Z,14.25
2022-10-18T22:07:37.839Z,14.20
2022-10-18T22:10:04.449Z,14.23
2022-10-18T22:12:30.848Z,14.26
2022-10-18T22:14:57.224Z,14.22
2022-10-18T22:17:23.697Z,14.18
2022-10-18T22:19:50.099Z,14.21
2022-10-18T22:22:16.539Z,14.13
2022-10-18T22:24:42.895Z,14.11
2022-10-18T22:27:09.321Z,14.15
2022-10-18T22:29:35.685Z,14.12
2022-10-18T22:32:02.041Z,14.12
2022-10-18T22:34:28.474Z,14.13
2022-10-18T22:36:55.422Z,14.11
2022-10-18T22:39:21.963Z,14.10
2022-10-18T22:41:52.032Z,14.12
2022-10-18T22:44:18.451Z,14.03
2022-10-18T22:46:44.832Z,14.03
2022-10-18T22:49:12.205Z,14.05
2022-10-18T22:51:38.632Z,14.06
2022-10-18T22:54:05.091Z,14.02
2022-10-18T22:56:31.517Z,14.00
2022-10-18T22:58:57.944Z,13.99
2022-10-18T23:01:24.658Z,14.03
2022-10-18T23:03:59.095Z,13.95
2022-10-18T23:06:31.048Z,14.01
2022-10-18T23:08:59.630Z,14.06
2022-10-18T23:11:28.186Z,14.03
2022-10-18T23:13:54.862Z,13.97
2022-10-18T23:16:21.876Z,13.92
2022-10-18T23:18:50.902Z,13.98
2022-10-18T23:21:17.792Z,13.96
2022-10-18T23:23:44.443Z,13.95
2022-10-18T23:26:15.160Z,13.89
2022-10-18T23:28:43.860Z,13.90
2022-10-18T23:31:13.424Z,13.80
2022-10-18T23:33:41.310Z,13.79
2022-10-18T23:36:08.463Z,13.87
2022-10-18T23:38:36.096Z,13.92
2022-10-18T23:41:03.082Z,13.87
2022-10-18T23:43:29.492Z,13.77
2022-10-18T23:45:56.106Z,13.81
2022-10-18T23:48:22.496Z,13.75
2022-10-18T23:50:49.071Z,13.82
2022-10-18T23:53:15.565Z,13.77
2022-10-18T23:56:12.653Z,13.80
2022-10-18T23:58:39.731Z,13.76
